Time;durP1;ratioP1;P1;durP2;ratioP2;P2;SDS_P1;SDS_P2;PMS_P1;PMS_P2;Temp;Humidity;BMP_temperature;BMP_pressure;BME280_temperature;BME280_humidity;BME280_pressure;Samples;Min_cycle;Max_cycle;Signal;HPM_P1;HPM_P2
2022/11/05 00:09:29;;;;;;;;;;;9.10;99.90;;;;;;5096958;28;19914;-40
2022/11/05 00:17:24;;;;;;;;;;;9.10;99.90;;;;;;5098818;28;19926;-39
2022/11/05 00:19:50;;;;;;;;;;;9.00;99.90;;;;;;5102598;28;19923;-39
2022/11/05 00:25:18;;;;;;;;;;;9.00;99.90;;;;;;5113006;28;19919;-40
2022/11/05 00:27:45;;;;;;;;;;;8.90;99.90;;;;;;5111326;28;19904;-39
2022/11/05 00:30:11;;;;;;;;;;;8.90;99.90;;;;;;5096341;28;19957;-41
2022/11/05 00:32:36;;;;;;;;;;;8.90;99.90;;;;;;5098078;28;19908;-41
2022/11/05 00:35:02;;;;;;;;;;;8.90;99.90;;;;;;5116533;28;20015;-40
2022/11/05 00:37:28;;;;;;;;;;;8.90;99.90;;;;;;5116581;28;19911;-39
2022/11/05 00:39:54;;;;;;;;;;;8.90;99.90;;;;;;5116561;28;19999;-40
2022/11/05 00:45:04;;;;;;;;;;;8.90;99.90;;;;;;5115285;28;19910;-31
2022/11/05 00:50:15;;;;;;;;;;;8.90;99.90;;;;;;5115567;28;19956;-36
2022/11/05 00:52:56;;;;;;;;;;;8.90;99.90;;;;;;5116513;28;19903;-39
2022/11/05 00:55:23;;;;;;;;;;;8.90;99.90;;;;;;5116142;28;19910;-32
2022/11/05 00:57:49;;;;;;;;;;;8.80;99.90;;;;;;5116033;28;19947;-36
2022/11/05 01:00:15;;;;;;;;;;;8.80;99.90;;;;;;5116074;28;20320;-35
2022/11/05 01:02:40;;;;;;;;;;;8.80;99.90;;;;;;5116312;28;20024;-35
2022/11/05 01:05:06;;;;;;;;;;;8.70;99.90;;;;;;5115679;28;19919;-31
2022/11/05 01:07:31;;;;;;;;;;;8.70;99.90;;;;;;5114890;28;20275;-38
2022/11/05 01:09:57;;;;;;;;;;;8.70;99.90;;;;;;5115992;28;20367;-40
2022/11/05 01:12:22;;;;;;;;;;;8.70;99.90;;;;;;5115894;28;19914;-40
2022/11/05 01:14:48;;;;;;;;;;;8.70;99.90;;;;;;5115931;28;19914;-40
2022/11/05 01:17:13;;;;;;;;;;;8.70;99.90;;;;;;5103557;28;20296;-42
2022/11/05 01:19:39;;;;;;;;;;;8.70;99.90;;;;;;5095288;28;20033;-40
2022/11/05 01:22:04;;;;;;;;;;;8.70;99.90;;;;;;5095353;28;20010;-39
2022/11/05 01:24:30;;;;;;;;;;;8.70;99.90;;;;;;5104592;28;20002;-40
2022/11/05 01:26:55;;;;;;;;;;;8.70;99.90;;;;;;5115705;28;19907;-40
2022/11/05 01:29:21;;;;;;;;;;;8.70;99.90;;;;;;5115647;28;20355;-40
2022/11/05 01:31:47;;;;;;;;;;;8.70;99.90;;;;;;5115526;28;19908;-40
2022/11/05 01:34:12;;;;;;;;;;;8.70;99.90;;;;;;5115210;28;19911;-40
2022/11/05 01:36:38;;;;;;;;;;;8.60;99.90;;;;;;5115510;28;19907;-41
2022/11/05 01:39:03;;;;;;;;;;;8.60;99.90;;;;;;5115462;28;19911;-40
2022/11/05 01:44:32;;;;;;;;;;;8.50;99.90;;;;;;5095306;28;19914;-41
2022/11/05 01:46:57;;;;;;;;;;;8.50;99.90;;;;;;5094939;28;19915;-39
2022/11/05 01:49:32;;;;;;;;;;;8.50;99.90;;;;;;5094854;28;19999;-40
2022/11/05 01:51:58;;;;;;;;;;;8.50;99.90;;;;;;5094734;28;20391;-42
2022/11/05 01:54:26;;;;;;;;;;;8.50;99.90;;;;;;5094744;28;20455;-40
2022/11/05 01:56:53;;;;;;;;;;;8.50;99.90;;;;;;5094749;28;20363;-40
2022/11/05 01:59:19;;;;;;;;;;;8.50;99.90;;;;;;5110211;28;19912;-46
2022/11/05 02:01:44;;;;;;;;;;;8.40;99.90;;;;;;5114792;28;20400;-40
2022/11/05 02:04:14;;;;;;;;;;;8.40;99.90;;;;;;5113377;28;20032;-40
2022/11/05 02:06:45;;;;;;;;;;;8.40;99.90;;;;;;5113355;28;20363;-40
2022/11/05 02:09:22;;;;;;;;;;;8.40;99.90;;;;;;5114779;28;19911;-53
2022/11/05 02:11:48;;;;;;;;;;;8.50;99.90;;;;;;5114809;28;19911;-54
2022/11/05 02:14:14;;;;;;;;;;;8.50;99.90;;;;;;5114797;28;20002;-40
2022/11/05 02:16:47;;;;;;;;;;;8.50;99.90;;;;;;5100606;28;20006;-43
2022/11/05 02:19:22;;;;;;;;;;;8.50;99.90;;;;;;5114549;28;19915;-43
2022/11/05 02:22:06;;;;;;;;;;;8.50;99.90;;;;;;5114614;28;19908;-42
2022/11/05 02:24:31;;;;;;;;;;;8.50;99.90;;;;;;5110212;28;20376;-39
2022/11/05 02:27:08;;;;;;;;;;;8.50;99.90;;;;;;5102771;28;19999;-39
2022/11/05 02:29:50;;;;;;;;;;;8.50;99.90;;;;;;5095960;28;19923;-33
2022/11/05 02:32:16;;;;;;;;;;;8.50;99.90;;;;;;5096467;28;20000;-38
2022/11/05 02:34:57;;;;;;;;;;;8.40;99.90;;;;;;5097252;28;20363;-38
2022/11/05 02:37:31;;;;;;;;;;;8.30;99.90;;;;;;5099950;28;20319;-40
2022/11/05 02:39:57;;;;;;;;;;;8.20;99.90;;;;;;5114238;28;20448;-39
2022/11/05 02:42:41;;;;;;;;;;;8.20;99.90;;;;;;5103590;28;19908;-41
2022/11/05 02:45:24;;;;;;;;;;;8.20;99.90;;;;;;5093831;28;20375;-39
2022/11/05 02:47:51;;;;;;;;;;;8.10;99.90;;;;;;5093821;28;19908;-40
2022/11/05 02:50:26;;;;;;;;;;;8.10;99.90;;;;;;5093787;28;19934;-41
2022/11/05 02:53:01;;;;;;;;;;;8.10;99.90;;;;;;5107841;28;19908;-40
2022/11/05 02:55:30;;;;;;;;;;;8.10;99.90;;;;;;5105772;28;19908;-42
2022/11/05 02:57:55;;;;;;;;;;;8.20;99.90;;;;;;5105624;28;19907;-40
2022/11/05 03:00:40;;;;;;;;;;;8.20;99.90;;;;;;5106649;28;19915;-40
2022/11/05 03:03:17;;;;;;;;;;;8.20;99.90;;;;;;5108327;27;19913;-40
2022/11/05 03:06:12;;;;;;;;;;;8.20;99.90;;;;;;5129315;27;20475;-42
2022/11/05 03:08:43;;;;;;;;;;;8.20;99.90;;;;;;5099446;28;20377;-39
2022/11/05 03:11:14;;;;;;;;;;;8.30;99.90;;;;;;5104880;28;20006;-44
2022/11/05 03:13:48;;;;;;;;;;;8.30;99.90;;;;;;5104574;28;19919;-51
2022/11/05 03:16:17;;;;;;;;;;;8.30;99.90;;;;;;5100367;28;19995;-55
2022/11/05 03:18:51;;;;;;;;;;;8.30;99.90;;;;;;5113971;28;20371;-41
2022/11/05 03:21:20;;;;;;;;;;;8.30;99.90;;;;;;5111968;28;19997;-40
2022/11/05 03:23:52;;;;;;;;;;;8.30;99.90;;;;;;5113758;28;19987;-42
2022/11/05 03:26:24;;;;;;;;;;;8.30;99.90;;;;;;5113769;28;19908;-43
2022/11/05 03:28:53;;;;;;;;;;;8.40;99.90;;;;;;5111994;28;20001;-41
2022/11/05 03:31:19;;;;;;;;;;;8.40;99.90;;;;;;5113714;28;20383;-36
2022/11/05 03:33:45;;;;;;;;;;;8.30;99.90;;;;;;5113515;28;19915;-37
2022/11/05 03:36:15;;;;;;;;;;;8.30;99.90;;;;;;5105581;28;19908;-34
2022/11/05 03:38:42;;;;;;;;;;;8.30;99.90;;;;;;5099871;28;19930;-38
2022/11/05 03:41:10;;;;;;;;;;;8.30;99.90;;;;;;5093436;28;20432;-33
2022/11/05 03:43:39;;;;;;;;;;;8.30;99.90;;;;;;5093409;28;19908;-34
2022/11/05 03:46:09;;;;;;;;;;;8.30;99.90;;;;;;5091185;28;19908;-36
2022/11/05 03:48:40;;;;;;;;;;;8.30;99.90;;;;;;5094475;28;20280;-33
2022/11/05 03:51:12;;;;;;;;;;;8.30;99.90;;;;;;5107982;28;19908;-34
2022/11/05 03:53:42;;;;;;;;;;;8.30;99.90;;;;;;5109911;28;19908;-33
2022/11/05 03:56:10;;;;;;;;;;;8.30;99.90;;;;;;5112589;28;19987;-34
2022/11/05 03:58:40;;;;;;;;;;;8.30;99.90;;;;;;5112277;28;20390;-38
2022/11/05 04:01:05;;;;;;;;;;;8.40;99.90;;;;;;5110604;28;19908;-32
2022/11/05 04:03:35;;;;;;;;;;;8.40;99.90;;;;;;5113284;28;19915;-37
2022/11/05 04:14:14;;;;;;;;;;;8.50;99.90;;;;;;5100612;28;20374;-33
2022/11/05 04:24:52;;;;;;;;;;;8.50;99.90;;;;;;5105038;28;19930;-46
2022/11/05 04:27:17;;;;;;;;;;;8.50;99.90;;;;;;5104071;28;19908;-41
2022/11/05 04:32:27;;;;;;;;;;;8.50;99.90;;;;;;5104280;28;20383;-41
2022/11/05 04:34:52;;;;;;;;;;;8.50;99.90;;;;;;5106294;28;19908;-33
2022/11/05 04:37:18;;;;;;;;;;;8.50;99.90;;;;;;5096072;28;20375;-34
2022/11/05 04:39:43;;;;;;;;;;;8.60;99.90;;;;;;5104757;28;20359;-33
2022/11/05 04:42:09;;;;;;;;;;;8.60;99.90;;;;;;5103728;28;19972;-41
2022/11/05 04:44:34;;;;;;;;;;;8.70;99.90;;;;;;5096279;28;19994;-32
2022/11/05 04:47:00;;;;;;;;;;;8.70;99.90;;;;;;5099336;28;19916;-33
2022/11/05 04:49:26;;;;;;;;;;;8.70;99.90;;;;;;5114196;28;20359;-33
2022/11/05 04:51:51;;;;;;;;;;;8.80;99.90;;;;;;5107143;28;19908;-37
2022/11/05 04:54:17;;;;;;;;;;;8.80;99.90;;;;;;5113352;28;20399;-32
2022/11/05 04:56:42;;;;;;;;;;;8.80;99.90;;;;;;5112867;28;19954;-34
2022/11/05 04:59:08;;;;;;;;;;;8.80;99.90;;;;;;5097355;28;19912;-32
2022/11/05 05:01:33;;;;;;;;;;;8.80;99.90;;;;;;5108819;28;19908;-35
2022/11/05 05:03:59;;;;;;;;;;;8.80;99.90;;;;;;5111012;28;19915;-35
2022/11/05 05:06:24;;;;;;;;;;;8.80;99.90;;;;;;5098717;28;19918;-32
2022/11/05 05:08:50;;;;;;;;;;;8.90;99.90;;;;;;5104961;28;19919;-35
2022/11/05 05:11:17;;;;;;;;;;;8.80;99.90;;;;;;5095415;28;19908;-34
2022/11/05 05:13:43;;;;;;;;;;;8.80;99.90;;;;;;5103977;28;19907;-39
2022/11/05 05:16:14;;;;;;;;;;;8.80;99.90;;;;;;5102960;28;19977;-37
2022/11/05 05:18:40;;;;;;;;;;;8.80;99.90;;;;;;5104090;28;19920;-32
2022/11/05 05:23:49;;;;;;;;;;;8.80;99.90;;;;;;5098742;28;20312;-32
2022/11/05 05:26:15;;;;;;;;;;;8.70;99.90;;;;;;5108280;28;19912;-35
2022/11/05 05:28:41;;;;;;;;;;;8.70;99.90;;;;;;5101837;28;19908;-34
2022/11/05 05:31:06;;;;;;;;;;;8.80;99.90;;;;;;5104339;28;19969;-32
2022/11/05 05:33:31;;;;;;;;;;;8.70;99.90;;;;;;5100629;28;20344;-32
2022/11/05 05:35:57;;;;;;;;;;;8.70;99.90;;;;;;5108460;28;19912;-34
2022/11/05 05:38:23;;;;;;;;;;;8.70;99.90;;;;;;5099239;28;19911;-32
2022/11/05 05:40:49;;;;;;;;;;;8.80;99.90;;;;;;5109433;28;19908;-42
2022/11/05 05:43:15;;;;;;;;;;;8.70;99.90;;;;;;5100605;28;19992;-41
2022/11/05 05:45:41;;;;;;;;;;;8.80;99.90;;;;;;5100210;28;19908;-40
2022/11/05 05:48:06;;;;;;;;;;;8.80;99.90;;;;;;5095985;28;19908;-40
2022/11/05 05:50:32;;;;;;;;;;;8.80;99.90;;;;;;5095784;28;20405;-41
2022/11/05 05:52:57;;;;;;;;;;;8.80;99.90;;;;;;5109422;28;19914;-40
2022/11/05 05:55:23;;;;;;;;;;;8.80;99.90;;;;;;5103710;28;20360;-39
2022/11/05 05:57:48;;;;;;;;;;;8.70;99.90;;;;;;5097852;28;20015;-39
2022/11/05 06:00:14;;;;;;;;;;;8.70;99.90;;;;;;5099769;28;19911;-40
2022/11/05 06:02:39;;;;;;;;;;;8.70;99.90;;;;;;5094341;28;19918;-39
2022/11/05 06:05:05;;;;;;;;;;;8.60;99.90;;;;;;5109283;28;19994;-41
2022/11/05 06:07:30;;;;;;;;;;;8.70;99.90;;;;;;5110027;28;19912;-41
2022/11/05 06:09:56;;;;;;;;;;;8.70;99.90;;;;;;5098537;28;20064;-40
2022/11/05 06:12:21;;;;;;;;;;;8.70;99.90;;;;;;5095788;28;19914;-40
2022/11/05 06:14:47;;;;;;;;;;;8.60;99.90;;;;;;5104732;28;20348;-40
2022/11/05 06:17:12;;;;;;;;;;;8.60;99.90;;;;;;5104027;28;19908;-39
2022/11/05 06:19:38;;;;;;;;;;;8.60;99.90;;;;;;5097910;28;19916;-41
2022/11/05 06:22:03;;;;;;;;;;;8.60;99.90;;;;;;5114824;28;19912;-46
2022/11/05 06:24:29;;;;;;;;;;;8.60;99.90;;;;;;5103255;28;19915;-39
2022/11/05 06:26:54;;;;;;;;;;;8.60;99.90;;;;;;5107724;28;19908;-40
2022/11/05 06:29:20;;;;;;;;;;;8.50;99.90;;;;;;5102136;28;19930;-41
2022/11/05 06:31:45;;;;;;;;;;;8.60;99.90;;;;;;5104835;28;19915;-41
2022/11/05 06:34:11;;;;;;;;;;;8.60;99.90;;;;;;5098508;28;19908;-43
2022/11/05 06:36:36;;;;;;;;;;;8.50;99.90;;;;;;5093939;28;19908;-39
2022/11/05 06:39:02;;;;;;;;;;;8.50;99.90;;;;;;5094163;28;19934;-35
2022/11/05 06:41:27;;;;;;;;;;;8.50;99.90;;;;;;5093201;28;19908;-32
2022/11/05 06:43:53;;;;;;;;;;;8.50;99.90;;;;;;5102221;28;19908;-33
2022/11/05 06:46:18;;;;;;;;;;;8.50;99.90;;;;;;5098454;28;20433;-32
2022/11/05 06:48:44;;;;;;;;;;;8.50;99.90;;;;;;5095768;28;19908;-33
2022/11/05 06:51:09;;;;;;;;;;;8.50;99.90;;;;;;5096239;28;19964;-38
2022/11/05 06:53:35;;;;;;;;;;;8.50;99.90;;;;;;5095445;28;19915;-34
2022/11/05 06:56:01;;;;;;;;;;;8.50;99.90;;;;;;5097657;28;19907;-33
2022/11/05 06:58:27;;;;;;;;;;;8.40;99.90;;;;;;5105528;28;19912;-36
2022/11/05 07:00:52;;;;;;;;;;;8.40;99.90;;;;;;5104569;28;20401;-40
2022/11/05 07:03:18;;;;;;;;;;;8.40;99.90;;;;;;5101537;28;19915;-52
2022/11/05 07:05:47;;;;;;;;;;;8.40;99.90;;;;;;5094416;28;19915;-37
2022/11/05 07:08:13;;;;;;;;;;;8.40;99.90;;;;;;5092356;28;20427;-35
2022/11/05 07:10:38;;;;;;;;;;;8.50;99.90;;;;;;5095125;28;20050;-44
2022/11/05 07:13:04;;;;;;;;;;;8.50;99.90;;;;;;5111755;28;19908;-41
2022/11/05 07:15:30;;;;;;;;;;;8.50;99.90;;;;;;5114098;28;19911;-43
2022/11/05 07:17:57;;;;;;;;;;;8.50;99.90;;;;;;5097599;28;19979;-41
2022/11/05 07:20:23;;;;;;;;;;;8.60;99.90;;;;;;5094684;28;19942;-42
2022/11/05 07:22:48;;;;;;;;;;;8.60;99.90;;;;;;5096814;28;20382;-42
2022/11/05 07:25:14;;;;;;;;;;;8.60;99.90;;;;;;5102065;28;19918;-44
2022/11/05 07:27:39;;;;;;;;;;;8.60;99.90;;;;;;5100059;28;20313;-44
2022/11/05 07:30:06;;;;;;;;;;;8.60;99.90;;;;;;5097926;28;19962;-44
2022/11/05 07:32:35;;;;;;;;;;;8.60;99.90;;;;;;5099153;28;19908;-44
2022/11/05 07:35:01;;;;;;;;;;;8.70;99.90;;;;;;5098027;28;19908;-42
2022/11/05 07:37:26;;;;;;;;;;;8.70;99.90;;;;;;5098550;28;19916;-43
2022/11/05 07:39:52;;;;;;;;;;;8.70;99.90;;;;;;5095339;28;19998;-43
2022/11/05 07:42:17;;;;;;;;;;;8.70;99.90;;;;;;5112696;28;20325;-40
2022/11/05 07:44:42;;;;;;;;;;;8.80;99.90;;;;;;5097209;28;19908;-49
2022/11/05 07:47:08;;;;;;;;;;;8.80;99.90;;;;;;5096041;28;19912;-41
2022/11/05 07:49:33;;;;;;;;;;;8.90;99.90;;;;;;5098857;28;20359;-41
2022/11/05 07:51:59;;;;;;;;;;;8.90;99.90;;;;;;5108823;28;20359;-41
2022/11/05 07:54:25;;;;;;;;;;;9.00;99.90;;;;;;5096275;28;19912;-41
2022/11/05 07:56:51;;;;;;;;;;;9.10;99.90;;;;;;5096533;28;19914;-41
2022/11/05 07:59:16;;;;;;;;;;;9.10;99.90;;;;;;5106435;28;20003;-36
2022/11/05 08:01:42;;;;;;;;;;;9.10;99.90;;;;;;5100383;28;19961;-41
2022/11/05 08:04:07;;;;;;;;;;;9.20;99.90;;;;;;5106803;28;19915;-39
2022/11/05 08:06:33;;;;;;;;;;;9.20;99.90;;;;;;5105573;28;19908;-43
2022/11/05 08:08:58;;;;;;;;;;;9.30;99.90;;;;;;5101393;28;20302;-39
2022/11/05 08:11:24;;;;;;;;;;;9.30;99.90;;;;;;5095647;28;19908;-35
2022/11/05 08:13:49;;;;;;;;;;;9.40;99.90;;;;;;5097956;28;20014;-36
2022/11/05 08:16:15;;;;;;;;;;;9.50;99.90;;;;;;5108755;28;20002;-39
2022/11/05 08:18:40;;;;;;;;;;;9.50;99.90;;;;;;5098989;28;19916;-36
2022/11/05 08:21:06;;;;;;;;;;;9.50;99.90;;;;;;5096584;28;20383;-40
2022/11/05 08:23:32;;;;;;;;;;;9.60;99.90;;;;;;5116309;28;19908;-42
2022/11/05 08:25:58;;;;;;;;;;;9.60;99.90;;;;;;5104607;28;19908;-43
2022/11/05 08:28:24;;;;;;;;;;;9.60;99.90;;;;;;5097852;28;20423;-45
2022/11/05 08:30:50;;;;;;;;;;;9.70;99.90;;;;;;5111234;28;19983;-43
2022/11/05 08:33:16;;;;;;;;;;;9.70;99.90;;;;;;5096695;28;19908;-41
2022/11/05 08:35:42;;;;;;;;;;;9.70;99.90;;;;;;5097871;28;19931;-44
2022/11/05 08:38:09;;;;;;;;;;;9.80;99.90;;;;;;5097616;28;19908;-40
2022/11/05 08:40:35;;;;;;;;;;;9.80;99.90;;;;;;5102394;28;20371;-44
2022/11/05 08:43:02;;;;;;;;;;;9.90;99.90;;;;;;5113735;28;20303;-49
2022/11/05 08:45:27;;;;;;;;;;;9.90;99.90;;;;;;5112616;28;19930;-41
2022/11/05 08:48:00;;;;;;;;;;;10.00;99.90;;;;;;5114058;28;19907;-42
2022/11/05 08:50:25;;;;;;;;;;;10.10;99.90;;;;;;5108894;28;20313;-42
2022/11/05 08:52:51;;;;;;;;;;;10.20;99.90;;;;;;5106981;28;19915;-39
2022/11/05 08:55:17;;;;;;;;;;;10.30;99.90;;;;;;5100567;28;20382;-40
2022/11/05 08:57:44;;;;;;;;;;;10.40;99.90;;;;;;5112180;28;20364;-42
2022/11/05 09:00:11;;;;;;;;;;;10.50;99.90;;;;;;5104446;28;20435;-34
2022/11/05 09:02:36;;;;;;;;;;;10.60;99.90;;;;;;5098970;28;20359;-40
2022/11/05 09:05:02;;;;;;;;;;;10.60;99.90;;;;;;5103024;28;19953;-36
2022/11/05 09:07:27;;;;;;;;;;;10.70;99.90;;;;;;5098268;28;19920;-39
2022/11/05 09:09:53;;;;;;;;;;;10.80;99.90;;;;;;5106204;28;19907;-39
2022/11/05 09:12:18;;;;;;;;;;;10.80;99.90;;;;;;5112210;28;19908;-35
2022/11/05 09:14:44;;;;;;;;;;;10.90;99.90;;;;;;5096490;28;19923;-33
2022/11/05 09:17:17;;;;;;;;;;;10.90;99.90;;;;;;5094978;28;20430;-32
2022/11/05 09:19:42;;;;;;;;;;;10.90;99.90;;;;;;5096482;28;19922;-35
2022/11/05 09:22:11;;;;;;;;;;;11.00;99.90;;;;;;5095912;28;20279;-39
2022/11/05 09:24:40;;;;;;;;;;;10.90;99.90;;;;;;5095767;28;19908;-35
2022/11/05 09:27:09;;;;;;;;;;;10.90;99.90;;;;;;5112948;28;19973;-37
2022/11/05 09:29:34;;;;;;;;;;;10.80;99.90;;;;;;5105924;28;19923;-41
2022/11/05 09:32:00;;;;;;;;;;;10.90;99.90;;;;;;5095379;28;20410;-43
2022/11/05 09:34:26;;;;;;;;;;;10.90;99.90;;;;;;5104716;28;19939;-41
2022/11/05 09:36:51;;;;;;;;;;;10.90;99.90;;;;;;5104792;28;20041;-41
2022/11/05 09:39:17;;;;;;;;;;;11.00;99.90;;;;;;5106941;28;19946;-41
2022/11/05 09:41:43;;;;;;;;;;;11.00;99.90;;;;;;5115601;28;20342;-41
2022/11/05 09:44:12;;;;;;;;;;;11.10;99.90;;;;;;5098973;28;20410;-39
2022/11/05 09:46:57;;;;;;;;;;;11.20;99.90;;;;;;5094869;28;19947;-33
2022/11/05 09:49:23;;;;;;;;;;;11.30;99.90;;;;;;5097569;28;20398;-35
2022/11/05 09:51:50;;;;;;;;;;;11.40;99.90;;;;;;5112700;28;20409;-35
2022/11/05 09:54:16;;;;;;;;;;;11.40;99.90;;;;;;5108821;28;20411;-34
2022/11/05 09:56:42;;;;;;;;;;;11.50;99.90;;;;;;5102050;28;19951;-34
2022/11/05 09:59:26;;;;;;;;;;;11.40;99.90;;;;;;5094210;28;20302;-33
2022/11/05 10:01:56;;;;;;;;;;;11.50;99.90;;;;;;5115162;28;20419;-31
2022/11/05 10:04:24;;;;;;;;;;;11.60;99.90;;;;;;5114191;28;19908;-35
2022/11/05 10:07:03;;;;;;;;;;;11.70;99.90;;;;;;5110442;28;19907;-34
2022/11/05 10:09:34;;;;;;;;;;;11.80;99.90;;;;;;5101040;28;19914;-34
2022/11/05 10:12:03;;;;;;;;;;;11.90;99.90;;;;;;5095528;28;19916;-34
2022/11/05 10:14:30;;;;;;;;;;;12.00;99.90;;;;;;5111982;28;20002;-33
2022/11/05 10:17:08;;;;;;;;;;;12.00;99.90;;;;;;5114514;28;20406;-32
2022/11/05 10:19:45;;;;;;;;;;;12.10;99.90;;;;;;5109691;28;19916;-37
2022/11/05 10:22:12;;;;;;;;;;;12.10;99.90;;;;;;5103760;28;19914;-41
2022/11/05 10:24:47;;;;;;;;;;;12.10;99.90;;;;;;5101734;28;19914;-35
2022/11/05 10:27:14;;;;;;;;;;;12.20;99.90;;;;;;5100400;28;19907;-36
2022/11/05 10:29:41;;;;;;;;;;;12.20;99.90;;;;;;5101120;28;20402;-52
2022/11/05 10:32:08;;;;;;;;;;;12.30;99.90;;;;;;5113253;28;19908;-37
2022/11/05 10:34:35;;;;;;;;;;;12.40;99.90;;;;;;5095670;28;19908;-39
2022/11/05 10:37:01;;;;;;;;;;;12.40;99.90;;;;;;5104729;28;20379;-35
2022/11/05 10:39:29;;;;;;;;;;;12.40;99.90;;;;;;5103054;28;19966;-34
2022/11/05 10:42:13;;;;;;;;;;;12.50;99.90;;;;;;5105460;28;19960;-39
2022/11/05 10:44:38;;;;;;;;;;;12.50;99.90;;;;;;5101844;28;20019;-38
2022/11/05 10:47:16;;;;;;;;;;;12.50;99.90;;;;;;5096374;28;19994;-40
2022/11/05 10:49:50;;;;;;;;;;;12.60;99.90;;;;;;5102320;28;19908;-40
2022/11/05 10:52:20;;;;;;;;;;;12.60;99.90;;;;;;5094884;28;19908;-40
2022/11/05 10:54:47;;;;;;;;;;;12.60;99.90;;;;;;5101705;28;20287;-40
2022/11/05 10:57:45;;;;;;;;;;;12.60;99.90;;;;;;5105742;28;19908;-45
2022/11/05 11:00:22;;;;;;;;;;;12.60;99.90;;;;;;5069896;28;20399;-34
2022/11/05 11:02:49;;;;;;;;;;;12.70;99.90;;;;;;5101596;28;19915;-41
2022/11/05 11:05:34;;;;;;;;;;;12.70;99.90;;;;;;5102449;28;20247;-40
2022/11/05 11:08:20;;;;;;;;;;;12.60;99.90;;;;;;5093970;28;20398;-41
2022/11/05 11:10:54;;;;;;;;;;;12.60;99.90;;;;;;5104120;28;19907;-40
2022/11/05 11:13:32;;;;;;;;;;;12.60;99.90;;;;;;5096795;28;20288;-35
2022/11/05 11:16:12;;;;;;;;;;;12.60;99.90;;;;;;5094600;28;19941;-32
2022/11/05 11:18:38;;;;;;;;;;;12.70;99.90;;;;;;5095254;28;20287;-32
2022/11/05 11:21:05;;;;;;;;;;;12.70;99.90;;;;;;5101123;28;20007;-34
2022/11/05 11:23:35;;;;;;;;;;;12.70;99.90;;;;;;5105864;28;20411;-37
2022/11/05 11:26:02;;;;;;;;;;;12.70;99.90;;;;;;5093939;28;19908;-38
2022/11/05 11:28:46;;;;;;;;;;;12.80;99.90;;;;;;5103456;28;19958;-36
2022/11/05 11:31:21;;;;;;;;;;;12.80;99.90;;;;;;5113773;28;19907;-40
2022/11/05 11:33:49;;;;;;;;;;;12.90;99.90;;;;;;5115291;28;19912;-38
2022/11/05 11:36:17;;;;;;;;;;;13.00;99.90;;;;;;5106313;28;19961;-41
2022/11/05 11:38:42;;;;;;;;;;;13.10;99.90;;;;;;5116270;28;20361;-41
2022/11/05 11:41:25;;;;;;;;;;;13.10;99.90;;;;;;5106754;28;19940;-48
2022/11/05 11:43:55;;;;;;;;;;;13.20;99.90;;;;;;5117778;28;19907;-35
2022/11/05 11:46:21;;;;;;;;;;;13.20;99.90;;;;;;5111471;28;20392;-35
2022/11/05 11:48:47;;;;;;;;;;;13.30;99.90;;;;;;5097103;28;19908;-34
2022/11/05 11:51:31;;;;;;;;;;;13.40;99.90;;;;;;5112538;28;19907;-36
2022/11/05 11:53:57;;;;;;;;;;;13.50;99.90;;;;;;5110352;28;19915;-34
2022/11/05 11:56:23;;;;;;;;;;;13.50;99.90;;;;;;5113934;28;20295;-33
2022/11/05 11:58:50;;;;;;;;;;;13.50;99.90;;;;;;5109661;28;19916;-38
2022/11/05 12:01:18;;;;;;;;;;;13.50;99.90;;;;;;5102607;28;20384;-33
2022/11/05 12:03:48;;;;;;;;;;;13.60;99.90;;;;;;5102148;28;20425;-36
2022/11/05 12:06:13;;;;;;;;;;;13.50;99.90;;;;;;5095146;28;19908;-33
2022/11/05 12:08:42;;;;;;;;;;;13.50;99.90;;;;;;5103820;28;20068;-37
2022/11/05 12:11:13;;;;;;;;;;;13.50;99.90;;;;;;5107051;27;20356;-34
2022/11/05 12:13:57;;;;;;;;;;;13.60;99.90;;;;;;5100811;28;19947;-36
2022/11/05 12:16:42;;;;;;;;;;;13.50;99.90;;;;;;5105153;28;20434;-32
2022/11/05 12:19:36;;;;;;;;;;;13.70;99.90;;;;;;5104088;28;20002;-30
2022/11/05 12:22:08;;;;;;;;;;;13.80;99.90;;;;;;5091298;28;19907;-34
2022/11/05 12:24:33;;;;;;;;;;;13.80;99.90;;;;;;5109996;28;19908;-34
2022/11/05 12:26:59;;;;;;;;;;;13.80;99.90;;;;;;5099052;28;20360;-34
2022/11/05 12:29:30;;;;;;;;;;;13.70;99.90;;;;;;5106643;28;20325;-31
2022/11/05 12:32:12;;;;;;;;;;;13.70;99.90;;;;;;5110558;28;20399;-33
2022/11/05 12:34:38;;;;;;;;;;;13.60;99.90;;;;;;5112805;28;20474;-35
2022/11/05 12:37:18;;;;;;;;;;;13.60;99.90;;;;;;5099418;28;19954;-30
2022/11/05 12:39:52;;;;;;;;;;;13.60;99.90;;;;;;5101495;28;20357;-34
2022/11/05 12:42:17;;;;;;;;;;;13.50;99.90;;;;;;5113987;28;19908;-39
2022/11/05 12:44:52;;;;;;;;;;;13.50;99.90;;;;;;5111623;28;20375;-45
2022/11/05 12:47:26;;;;;;;;;;;13.40;99.90;;;;;;5101342;28;20624;-41
2022/11/05 12:50:00;;;;;;;;;;;13.40;99.90;;;;;;5103778;28;19915;-40
2022/11/05 12:52:32;;;;;;;;;;;13.30;99.90;;;;;;5096977;28;19907;-40
2022/11/05 12:55:02;;;;;;;;;;;13.30;99.90;;;;;;5111731;28;20447;-41
2022/11/05 12:57:29;;;;;;;;;;;13.30;99.90;;;;;;5109091;28;19962;-42
2022/11/05 12:59:55;;;;;;;;;;;13.30;99.90;;;;;;5097484;28;19922;-40
2022/11/05 13:02:26;;;;;;;;;;;13.30;99.90;;;;;;5096141;28;20313;-42
2022/11/05 13:04:54;;;;;;;;;;;13.30;99.90;;;;;;5100036;28;19916;-41
2022/11/05 13:07:23;;;;;;;;;;;13.30;99.90;;;;;;5097189;28;19916;-38
2022/11/05 13:10:15;;;;;;;;;;;13.40;99.90;;;;;;5096443;28;20375;-40
2022/11/05 13:12:41;;;;;;;;;;;13.40;99.90;;;;;;5081717;28;19908;-39
2022/11/05 13:15:14;;;;;;;;;;;13.30;99.90;;;;;;5113492;28;19976;-39
2022/11/05 13:18:00;;;;;;;;;;;13.30;99.90;;;;;;5106100;28;20383;-41
2022/11/05 13:20:31;;;;;;;;;;;13.30;99.90;;;;;;5109647;28;19951;-41
2022/11/05 13:22:59;;;;;;;;;;;13.30;99.90;;;;;;5113082;28;19908;-40
2022/11/05 13:25:29;;;;;;;;;;;13.30;99.90;;;;;;5115866;28;19912;-40
2022/11/05 13:28:13;;;;;;;;;;;13.30;99.90;;;;;;5099802;28;20414;-40
2022/11/05 13:30:42;;;;;;;;;;;13.30;99.90;;;;;;5107185;28;19911;-40
2022/11/05 13:33:12;;;;;;;;;;;13.40;99.90;;;;;;5105138;28;20371;-39
2022/11/05 13:35:43;;;;;;;;;;;13.40;99.90;;;;;;5100807;28;20423;-42
2022/11/05 13:41:16;;;;;;;;;;;13.30;99.90;;;;;;5112859;28;20011;-42
2022/11/05 13:43:51;;;;;;;;;;;13.30;99.90;;;;;;5113735;28;19908;-41
2022/11/05 13:46:24;;;;;;;;;;;13.20;99.90;;;;;;5094848;28;19958;-41
2022/11/05 13:49:01;;;;;;;;;;;13.20;99.90;;;;;;5095350;28;19973;-42
2022/11/05 13:51:46;;;;;;;;;;;13.20;99.90;;;;;;5103018;28;19908;-41
2022/11/05 13:54:11;;;;;;;;;;;13.10;99.90;;;;;;5106445;28;19912;-40
2022/11/05 13:56:37;;;;;;;;;;;13.20;99.90;;;;;;5103061;28;20444;-40
2022/11/05 13:59:18;;;;;;;;;;;13.10;99.90;;;;;;5096585;28;19926;-40
2022/11/05 14:01:48;;;;;;;;;;;13.10;99.90;;;;;;5107508;28;19907;-42
2022/11/05 14:04:20;;;;;;;;;;;13.10;99.90;;;;;;5106303;28;20054;-42
2022/11/05 14:06:46;;;;;;;;;;;13.10;99.90;;;;;;5105493;28;19912;-43
2022/11/05 14:09:15;;;;;;;;;;;13.10;99.90;;;;;;5100400;28;20334;-41
2022/11/05 14:11:46;;;;;;;;;;;13.10;99.90;;;;;;5110125;28;19947;-44
2022/11/05 14:14:17;;;;;;;;;;;13.00;99.90;;;;;;5110857;28;19908;-39
2022/11/05 14:16:50;;;;;;;;;;;12.90;99.90;;;;;;5096196;28;19912;-43
2022/11/05 14:19:16;;;;;;;;;;;12.80;99.90;;;;;;5094071;28;20326;-40
2022/11/05 14:21:46;;;;;;;;;;;12.80;99.90;;;;;;5107017;28;19907;-39
2022/11/05 14:24:20;;;;;;;;;;;12.70;99.90;;;;;;5112483;28;19930;-41
2022/11/05 14:27:01;;;;;;;;;;;12.70;99.90;;;;;;5109240;28;19938;-39
2022/11/05 14:29:43;;;;;;;;;;;12.60;99.90;;;;;;5094098;28;19908;-43
2022/11/05 14:32:20;;;;;;;;;;;12.60;99.90;;;;;;5099483;28;20364;-40
2022/11/05 14:34:46;;;;;;;;;;;12.50;99.90;;;;;;5110084;28;19914;-40
2022/11/05 14:37:11;;;;;;;;;;;12.60;99.90;;;;;;5108507;28;20358;-41
2022/11/05 14:39:37;;;;;;;;;;;12.50;99.90;;;;;;5103343;28;19965;-39
2022/11/05 14:42:09;;;;;;;;;;;12.50;99.90;;;;;;5105154;28;20326;-41
2022/11/05 14:44:35;;;;;;;;;;;12.60;99.90;;;;;;5110933;28;20422;-39
2022/11/05 14:47:05;;;;;;;;;;;12.60;99.90;;;;;;5101965;28;19954;-36
2022/11/05 14:49:33;;;;;;;;;;;12.50;99.90;;;;;;5098863;28;19908;-33
2022/11/05 14:52:04;;;;;;;;;;;12.50;99.90;;;;;;5102046;28;20328;-32
2022/11/05 14:54:35;;;;;;;;;;;12.50;99.90;;;;;;5113372;28;20371;-34
2022/11/05 14:57:01;;;;;;;;;;;12.50;99.90;;;;;;5113017;28;20248;-32
2022/11/05 14:59:27;;;;;;;;;;;12.40;99.90;;;;;;5103576;28;19919;-31
2022/11/05 15:01:52;;;;;;;;;;;12.40;99.90;;;;;;5110435;28;19943;-31
2022/11/05 15:04:25;;;;;;;;;;;12.40;99.90;;;;;;5111125;28;19907;-32
2022/11/05 15:07:00;;;;;;;;;;;12.40;99.90;;;;;;5113592;28;19956;-33
2022/11/05 15:09:30;;;;;;;;;;;12.40;99.90;;;;;;5111127;28;19919;-34
2022/11/05 15:12:01;;;;;;;;;;;12.40;99.90;;;;;;5094736;28;19908;-35
2022/11/05 15:14:30;;;;;;;;;;;12.40;99.90;;;;;;5091178;28;20364;-34
2022/11/05 15:16:59;;;;;;;;;;;12.40;99.90;;;;;;5093294;28;20352;-36
2022/11/05 15:19:27;;;;;;;;;;;12.50;99.90;;;;;;5102158;28;20367;-35
2022/11/05 15:21:55;;;;;;;;;;;12.40;99.90;;;;;;5104963;28;19915;-39
2022/11/05 15:24:21;;;;;;;;;;;12.40;99.90;;;;;;5093041;28;19962;-32